createdAt,value
2018-12-18T00:00:34.777Z,6.51
2018-12-18T00:01:34.747Z,6.61
2018-12-18T00:02:34.713Z,6.63
2018-12-18T00:03:39.301Z,6.57
2018-12-18T00:04:34.648Z,6.57
2018-12-18T00:05:34.618Z,6.55
2018-12-18T00:06:34.613Z,6.60
2018-12-18T00:07:34.553Z,6.53
2018-12-18T00:08:34.523Z,6.64
2018-12-18T00:09:34.491Z,6.73
2018-12-18T00:10:34.461Z,6.65
2018-12-18T00:11:34.431Z,6.65
2018-12-18T00:12:34.404Z,6.68
2018-12-18T00:13:34.364Z,6.65
2018-12-18T00:14:34.330Z,6.69
2018-12-18T00:15:34.299Z,6.72
2018-12-18T00:16:34.268Z,6.68
2018-12-18T00:17:34.238Z,6.69
2018-12-18T00:18:34.204Z,6.78
2018-12-18T00:19:34.180Z,6.71
2018-12-18T00:20:34.142Z,6.82
2018-12-18T00:21:34.111Z,6.87
2018-12-18T00:22:34.078Z,6.76
2018-12-18T00:23:34.054Z,6.81
2018-12-18T00:24:34.015Z,6.72
2018-12-18T00:25:33.988Z,6.75
2018-12-18T00:26:33.972Z,6.72
2018-12-18T00:27:33.920Z,6.86
2018-12-18T00:28:33.890Z,6.86
2018-12-18T00:29:33.857Z,6.83
2018-12-18T00:30:33.836Z,6.87
2018-12-18T00:31:33.795Z,6.87
2018-12-18T00:32:33.763Z,6.86
2018-12-18T00:33:33.733Z,6.87
2018-12-18T00:34:33.699Z,6.89
2018-12-18T00:35:33.667Z,6.86
2018-12-18T00:36:33.639Z,6.94
2018-12-18T00:37:33.609Z,6.82
2018-12-18T00:38:33.575Z,6.90
2018-12-18T00:39:33.544Z,7.04
2018-12-18T00:40:33.521Z,6.89
2018-12-18T00:41:33.479Z,6.99
2018-12-18T00:42:33.448Z,6.93
2018-12-18T00:43:33.415Z,6.90
2018-12-18T00:44:33.388Z,6.90
2018-12-18T00:45:33.352Z,6.87
2018-12-18T00:46:33.325Z,6.87
2018-12-18T00:47:33.289Z,6.93
2018-12-18T00:48:33.258Z,6.91
2018-12-18T00:49:33.229Z,6.94
2018-12-18T00:50:33.193Z,7.05
2018-12-18T00:51:33.166Z,6.97
2018-12-18T00:52:33.132Z,7.04
2018-12-18T00:53:33.105Z,6.93
2018-12-18T00:54:33.070Z,7.00
2018-12-18T00:55:33.037Z,7.00
2018-12-18T00:56:33.006Z,6.94
2018-12-18T00:57:32.988Z,6.87
2018-12-18T00:58:32.940Z,7.01
2018-12-18T00:59:32.925Z,7.05
2018-12-18T01:00:32.879Z,7.07
2018-12-18T01:01:32.846Z,7.05
2018-12-18T01:02:32.815Z,7.01
2018-12-18T01:03:32.783Z,7.05
2018-12-18T01:04:32.753Z,7.04
2018-12-18T01:05:32.721Z,7.05
2018-12-18T01:06:32.688Z,7.00
2018-12-18T01:07:32.658Z,7.01
2018-12-18T01:08:32.627Z,6.99
2018-12-18T01:09:32.593Z,7.07
2018-12-18T01:10:32.563Z,7.05
2018-12-18T01:11:32.532Z,7.05
2018-12-18T01:12:32.499Z,6.91
2018-12-18T01:13:32.475Z,7.04
2018-12-18T01:14:32.435Z,7.04
2018-12-18T01:15:32.415Z,7.04
2018-12-18T01:16:32.375Z,7.07
2018-12-18T01:17:32.340Z,7.08
2018-12-18T01:18:32.310Z,7.05
2018-12-18T01:19:32.279Z,6.97
2018-12-18T01:20:32.748Z,7.08
2018-12-18T01:21:32.218Z,7.04
2018-12-18T01:22:32.184Z,6.99
2018-12-18T01:23:32.154Z,7.01
2018-12-18T01:24:32.122Z,7.00
2018-12-18T01:25:32.089Z,7.05
2018-12-18T01:26:32.058Z,7.04
2018-12-18T01:27:32.027Z,6.94
2018-12-18T01:28:31.995Z,6.99
2018-12-18T01:29:31.965Z,6.93
2018-12-18T01:30:31.937Z,6.89
2018-12-18T01:31:31.903Z,6.90
2018-12-18T01:32:31.870Z,6.93
2018-12-18T01:33:31.838Z,6.87
2018-12-18T01:34:31.825Z,6.96
2018-12-18T01:35:31.778Z,7.07
2018-12-18T01:36:31.741Z,6.94
2018-12-18T01:37:31.710Z,6.89
2018-12-18T01:38:31.687Z,6.87
2018-12-18T01:39:31.646Z,6.89
2018-12-18T01:40:31.614Z,6.86
2018-12-18T01:41:31.587Z,6.94
2018-12-18T01:42:31.550Z,6.90
2018-12-18T01:43:31.569Z,7.00
2018-12-18T01:44:31.488Z,6.93
2018-12-18T01:45:31.455Z,6.90
2018-12-18T01:46:31.464Z,6.91
2018-12-18T01:47:31.392Z,7.04
2018-12-18T01:48:31.361Z,6.97
2018-12-18T01:49:31.332Z,7.00
2018-12-18T01:50:31.296Z,6.97
2018-12-18T01:51:31.266Z,6.94
2018-12-18T01:52:31.234Z,7.00
2018-12-18T01:53:31.201Z,6.90
2018-12-18T01:54:31.170Z,7.00
2018-12-18T01:55:31.138Z,6.97
2018-12-18T01:56:31.107Z,7.00
2018-12-18T01:57:31.074Z,6.97
2018-12-18T01:58:31.110Z,7.01
2018-12-18T01:59:31.011Z,7.01
2018-12-18T02:00:30.980Z,7.04
2018-12-18T02:01:30.961Z,6.93
2018-12-18T02:02:30.917Z,6.96
2018-12-18T02:03:30.899Z,7.00
2018-12-18T02:04:30.853Z,7.08
2018-12-18T02:05:30.823Z,7.00
2018-12-18T02:06:30.790Z,6.96
2018-12-18T02:07:30.757Z,6.97
2018-12-18T02:08:30.727Z,6.97
2018-12-18T02:09:30.709Z,6.94
2018-12-18T02:10:30.663Z,7.07
2018-12-18T02:11:30.635Z,6.97
2018-12-18T02:12:30.600Z,6.91
2018-12-18T02:13:30.568Z,6.99
2018-12-18T02:14:30.539Z,6.96
2018-12-18T02:15:30.512Z,7.04
2018-12-18T02:16:30.475Z,7.04
2018-12-18T02:17:30.441Z,6.99
2018-12-18T02:18:30.419Z,6.94
2018-12-18T02:19:30.378Z,7.00
2018-12-18T02:20:30.345Z,6.93
2018-12-18T02:21:30.327Z,6.99
2018-12-18T02:22:30.281Z,6.93
2018-12-18T02:23:30.251Z,6.96
2018-12-18T02:24:30.219Z,7.04
2018-12-18T02:25:30.186Z,6.99
2018-12-18T02:26:30.159Z,7.01
2018-12-18T02:27:30.125Z,6.97
2018-12-18T02:28:30.091Z,7.04
2018-12-18T02:29:30.063Z,6.97
2018-12-18T02:30:30.028Z,7.00
2018-12-18T02:31:30.012Z,6.96
2018-12-18T02:32:29.968Z,7.00
2018-12-18T02:33:29.941Z,6.97
2018-12-18T02:34:29.913Z,7.09
2018-12-18T02:35:29.875Z,7.09
2018-12-18T02:36:29.841Z,7.04
2018-12-18T02:37:29.806Z,7.08
2018-12-18T02:38:29.779Z,7.04
2018-12-18T02:39:29.744Z,7.00
2018-12-18T02:40:29.720Z,7.05
2018-12-18T02:41:29.682Z,7.05
2018-12-18T02:42:29.648Z,7.04
2018-12-18T02:43:29.616Z,6.99
2018-12-18T02:44:29.590Z,7.04
2018-12-18T02:45:29.553Z,7.09
2018-12-18T02:46:29.525Z,7.04
2018-12-18T02:47:29.501Z,6.97
2018-12-18T02:48:29.460Z,7.04
2018-12-18T02:49:29.433Z,7.07
2018-12-18T02:50:29.395Z,7.04
2018-12-18T02:51:29.364Z,7.09
2018-12-18T02:52:29.341Z,7.09
2018-12-18T02:53:29.300Z,7.12
2018-12-18T02:54:29.272Z,7.09
2018-12-18T02:55:29.240Z,7.08
2018-12-18T02:56:29.206Z,7.08
2018-12-18T02:57:29.175Z,7.07
2018-12-18T02:58:29.147Z,7.08
2018-12-18T02:59:29.111Z,7.09
2018-12-18T03:00:29.083Z,7.08
2018-12-18T03:01:29.052Z,7.07
2018-12-18T03:02:29.016Z,7.05
2018-12-18T03:03:28.987Z,7.07
2018-12-18T03:04:28.953Z,7.05
2018-12-18T03:05:28.923Z,7.05
2018-12-18T03:06:28.890Z,7.07
2018-12-18T03:07:28.869Z,7.00
2018-12-18T03:08:28.832Z,7.12
2018-12-18T03:09:28.795Z,7.09
2018-12-18T03:10:28.766Z,7.16
2018-12-18T03:11:28.734Z,7.04
2018-12-18T03:12:28.701Z,7.07
2018-12-18T03:13:28.699Z,7.16
2018-12-18T03:14:28.637Z,7.19
2018-12-18T03:15:28.606Z,7.18
2018-12-18T03:16:28.575Z,7.19
2018-12-18T03:17:28.549Z,7.14
2018-12-18T03:18:28.522Z,7.14
2018-12-18T03:19:28.497Z,7.14
2018-12-18T03:20:28.463Z,7.18
2018-12-18T03:21:28.418Z,7.18
2018-12-18T03:22:28.390Z,7.15
2018-12-18T03:23:28.353Z,7.15
2018-12-18T03:24:28.323Z,7.18
2018-12-18T03:25:28.290Z,7.15
2018-12-18T03:26:28.274Z,7.23
2018-12-18T03:27:28.228Z,7.15
2018-12-18T03:28:28.197Z,7.16
2018-12-18T03:29:28.166Z,7.16
2018-12-18T03:30:28.134Z,7.19
2018-12-18T03:31:28.106Z,7.07
2018-12-18T03:32:28.072Z,7.19
2018-12-18T03:33:28.072Z,7.15
2018-12-18T03:34:28.455Z,7.11
2018-12-18T03:35:27.977Z,7.18
2018-12-18T03:36:27.948Z,7.15
2018-12-18T03:37:27.918Z,7.05
2018-12-18T03:38:27.880Z,7.07
2018-12-18T03:39:27.850Z,7.07
2018-12-18T03:40:27.839Z,7.07
2018-12-18T03:41:27.785Z,7.05
2018-12-18T03:42:27.755Z,7.08
2018-12-18T03:43:27.721Z,7.07
2018-12-18T03:44:27.694Z,7.09
2018-12-18T03:45:27.661Z,7.09
2018-12-18T03:46:27.636Z,7.16
2018-12-18T03:47:27.597Z,7.05
2018-12-18T03:48:27.564Z,7.04
2018-12-18T03:49:27.534Z,7.09
2018-12-18T03:50:27.500Z,7.04
2018-12-18T03:51:27.474Z,7.05
2018-12-18T03:52:27.438Z,7.07
2018-12-18T03:53:27.405Z,7.08
2018-12-18T03:54:27.388Z,7.11
2018-12-18T03:55:27.343Z,7.05
2018-12-18T03:56:27.315Z,7.04
2018-12-18T03:57:27.279Z,7.14
2018-12-18T03:58:27.259Z,7.15
2018-12-18T03:59:27.216Z,7.05
2018-12-18T04:00:27.186Z,7.09
2018-12-18T04:01:27.154Z,7.01
2018-12-18T04:02:27.126Z,7.04
2018-12-18T04:03:27.093Z,7.04
2018-12-18T04:04:27.060Z,7.00
2018-12-18T04:05:27.041Z,7.01
2018-12-18T04:06:26.997Z,6.99
2018-12-18T04:07:26.963Z,6.97
2018-12-18T04:08:26.935Z,7.04
2018-12-18T04:09:26.898Z,7.00
2018-12-18T04:10:26.869Z,7.09
2018-12-18T04:11:26.841Z,7.00
2018-12-18T04:12:26.806Z,7.08
2018-12-18T04:13:26.773Z,7.04
2018-12-18T04:14:26.744Z,7.07
2018-12-18T04:15:26.710Z,7.08
2018-12-18T04:16:26.689Z,7.04
2018-12-18T04:17:26.649Z,7.07
2018-12-18T04:18:26.621Z,7.07
2018-12-18T04:19:26.584Z,7.12
2018-12-18T04:20:26.552Z,7.00
2018-12-18T04:21:26.523Z,7.08
2018-12-18T04:22:26.493Z,7.00
2018-12-18T04:23:26.458Z,6.97
2018-12-18T04:24:26.430Z,6.97
2018-12-18T04:25:26.394Z,7.04
2018-12-18T04:26:26.369Z,6.99
2018-12-18T04:27:26.332Z,7.05
2018-12-18T04:28:26.300Z,7.00
2018-12-18T04:29:26.269Z,7.00
2018-12-18T04:30:26.236Z,7.01
2018-12-18T04:31:26.205Z,6.94
2018-12-18T04:32:26.200Z,6.96
2018-12-18T04:33:26.144Z,6.96
2018-12-18T04:34:26.112Z,7.01
2018-12-18T04:35:26.085Z,6.94
2018-12-18T04:36:26.050Z,6.99
2018-12-18T04:37:26.016Z,7.04
2018-12-18T04:38:25.983Z,7.00
2018-12-18T04:39:25.952Z,6.89
2018-12-18T04:40:25.924Z,6.87
2018-12-18T04:41:25.895Z,6.91
2018-12-18T04:42:25.857Z,6.90
2018-12-18T04:43:25.826Z,6.93
2018-12-18T04:44:25.812Z,6.91
2018-12-18T04:45:25.779Z,6.93
2018-12-18T04:46:25.731Z,6.86
2018-12-18T04:47:25.698Z,6.89
2018-12-18T04:48:25.670Z,6.82
2018-12-18T04:49:25.639Z,6.83
2018-12-18T04:50:25.608Z,6.86
2018-12-18T04:51:25.575Z,6.91
2018-12-18T04:52:25.542Z,6.89
2018-12-18T04:53:25.513Z,6.86
2018-12-18T04:54:25.494Z,6.90
2018-12-18T04:55:25.448Z,6.83
2018-12-18T04:56:25.417Z,6.89
2018-12-18T04:57:25.382Z,6.82
2018-12-18T04:58:25.356Z,6.89
2018-12-18T04:59:25.320Z,6.94
2018-12-18T05:00:25.289Z,6.94
2018-12-18T05:01:25.258Z,6.90
2018-12-18T05:02:25.226Z,6.90
2018-12-18T05:03:25.194Z,6.94
2018-12-18T05:04:25.163Z,6.91
2018-12-18T05:05:25.130Z,6.86
2018-12-18T05:06:25.098Z,6.93
2018-12-18T05:07:25.069Z,6.89
2018-12-18T05:08:25.037Z,6.94
2018-12-18T05:09:25.009Z,6.89
2018-12-18T05:10:24.983Z,6.87
2018-12-18T05:11:24.943Z,6.94
2018-12-18T05:12:24.911Z,6.89
2018-12-18T05:13:24.879Z,6.93
2018-12-18T05:14:24.847Z,7.01
2018-12-18T05:15:24.817Z,6.94
2018-12-18T05:16:24.782Z,6.90
2018-12-18T05:17:24.752Z,6.87
2018-12-18T05:18:24.720Z,6.83
2018-12-18T05:19:24.696Z,6.90
2018-12-18T05:20:24.659Z,6.83
2018-12-18T05:21:24.633Z,6.93
2018-12-18T05:22:24.596Z,6.93
2018-12-18T05:23:24.562Z,6.89
2018-12-18T05:24:24.536Z,6.81
2018-12-18T05:25:24.500Z,6.89
2018-12-18T05:26:24.465Z,6.86
2018-12-18T05:27:24.438Z,6.76
2018-12-18T05:28:24.404Z,6.73
2018-12-18T05:29:24.376Z,6.76
2018-12-18T05:30:24.340Z,6.75
2018-12-18T05:31:24.310Z,6.76
2018-12-18T05:32:24.276Z,6.83
2018-12-18T05:33:24.244Z,6.81
2018-12-18T05:34:24.218Z,6.75
2018-12-18T05:35:24.180Z,6.76
2018-12-18T05:36:24.156Z,6.73
2018-12-18T05:37:24.118Z,6.71
2018-12-18T05:38:24.093Z,6.83
2018-12-18T05:39:24.054Z,6.79
2018-12-18T05:40:24.026Z,6.71
2018-12-18T05:41:23.995Z,6.75
2018-12-18T05:42:23.961Z,6.73
2018-12-18T05:43:23.931Z,6.69
2018-12-18T05:44:23.900Z,6.72
2018-12-18T05:45:23.865Z,6.71
2018-12-18T05:46:23.836Z,6.68
2018-12-18T05:47:23.806Z,6.69
2018-12-18T05:48:23.771Z,6.68
2018-12-18T05:49:23.738Z,6.78
2018-12-18T05:50:23.706Z,6.82
2018-12-18T05:51:23.675Z,6.72
2018-12-18T05:52:23.644Z,6.69
2018-12-18T05:53:23.611Z,6.75
2018-12-18T05:54:23.584Z,6.72
2018-12-18T05:55:23.553Z,6.72
2018-12-18T05:56:23.525Z,6.73
2018-12-18T05:57:23.483Z,6.71
2018-12-18T05:58:23.453Z,6.68
2018-12-18T05:59:23.423Z,6.72
2018-12-18T06:00:23.391Z,6.69
2018-12-18T06:01:23.357Z,6.64
2018-12-18T06:02:23.329Z,6.68
2018-12-18T06:03:23.293Z,6.65
2018-12-18T06:04:23.262Z,6.65
2018-12-18T06:05:23.229Z,6.68
2018-12-18T06:06:23.202Z,6.65
2018-12-18T06:07:23.168Z,6.68
2018-12-18T06:08:23.135Z,6.65
2018-12-18T06:09:23.104Z,6.65
2018-12-18T06:10:23.071Z,6.57
2018-12-18T06:11:23.040Z,6.69
2018-12-18T06:12:23.009Z,6.69
2018-12-18T06:13:22.983Z,6.63
2018-12-18T06:14:22.945Z,6.58
2018-12-18T06:15:22.914Z,6.69
2018-12-18T06:16:22.881Z,6.58
2018-12-18T06:17:22.849Z,6.58
2018-12-18T06:18:22.817Z,6.61
2018-12-18T06:19:22.786Z,6.55
2018-12-18T06:20:22.754Z,6.57
2018-12-18T06:21:22.726Z,6.54
2018-12-18T06:22:22.694Z,6.72
2018-12-18T06:23:22.661Z,6.69
2018-12-18T06:24:22.629Z,6.57
2018-12-18T06:25:22.601Z,6.57
2018-12-18T06:26:22.564Z,6.63
2018-12-18T06:27:22.534Z,6.68
2018-12-18T06:28:22.506Z,6.64
2018-12-18T06:29:22.472Z,6.60
2018-12-18T06:30:22.438Z,6.60
2018-12-18T06:31:22.409Z,6.50
2018-12-18T06:32:22.374Z,6.54
2018-12-18T06:33:22.345Z,6.54
2018-12-18T06:34:22.316Z,6.51
2018-12-18T06:35:22.529Z,6.50
2018-12-18T06:36:22.248Z,6.53
2018-12-18T06:37:22.218Z,6.51
2018-12-18T06:38:22.184Z,6.51
2018-12-18T06:39:22.154Z,6.50
2018-12-18T06:40:22.119Z,6.51
2018-12-18T06:41:22.089Z,6.53
2018-12-18T06:42:22.055Z,6.53
2018-12-18T06:43:22.029Z,6.46
2018-12-18T06:44:21.998Z,6.61
2018-12-18T06:45:21.959Z,6.55
2018-12-18T06:46:21.929Z,6.57
2018-12-18T06:47:21.901Z,6.48
2018-12-18T06:48:21.865Z,6.55
2018-12-18T06:49:21.836Z,6.58
2018-12-18T06:50:21.802Z,6.53
2018-12-18T06:51:21.772Z,6.65
2018-12-18T06:52:21.745Z,6.71
2018-12-18T06:53:21.707Z,6.65
2018-12-18T06:54:21.678Z,6.54
2018-12-18T06:55:21.643Z,6.60
2018-12-18T06:56:21.613Z,6.65
2018-12-18T06:57:21.579Z,6.69
2018-12-18T06:58:21.548Z,6.71
2018-12-18T06:59:21.517Z,6.68
2018-12-18T07:00:21.487Z,6.72
2018-12-18T07:01:21.453Z,6.57
2018-12-18T07:02:21.434Z,6.69
2018-12-18T07:03:21.389Z,6.64
2018-12-18T07:04:21.359Z,6.72
2018-12-18T07:05:21.328Z,6.65
2018-12-18T07:06:21.296Z,6.71
2018-12-18T07:07:21.283Z,6.76
2018-12-18T07:08:21.231Z,6.75
2018-12-18T07:09:21.200Z,6.81
2018-12-18T07:10:21.167Z,6.69
2018-12-18T07:11:21.139Z,6.68
2018-12-18T07:12:21.106Z,6.75
2018-12-18T07:13:21.093Z,6.72
2018-12-18T07:14:21.048Z,6.63
2018-12-18T07:15:21.017Z,6.75
2018-12-18T07:16:21.079Z,6.72
2018-12-18T07:17:20.948Z,6.71
2018-12-18T07:18:20.919Z,6.78
2018-12-18T07:19:20.887Z,6.81
2018-12-18T07:20:20.873Z,6.73
2018-12-18T07:21:20.827Z,6.73
2018-12-18T07:22:20.790Z,6.71
2018-12-18T07:23:20.758Z,6.73
2018-12-18T07:24:20.726Z,6.78
2018-12-18T07:25:20.695Z,6.81
2018-12-18T07:26:20.697Z,6.76
2018-12-18T07:27:20.631Z,6.83
2018-12-18T07:28:20.601Z,6.76
2018-12-18T07:29:20.567Z,6.82
2018-12-18T07:30:20.542Z,6.87
2018-12-18T07:31:20.508Z,6.83
2018-12-18T07:32:20.492Z,6.73
2018-12-18T07:33:20.447Z,6.75
2018-12-18T07:34:20.410Z,6.87
2018-12-18T07:35:23.448Z,6.76
2018-12-18T07:36:20.348Z,6.76
2018-12-18T07:37:20.322Z,6.75
2018-12-18T07:38:20.285Z,6.79
2018-12-18T07:39:20.268Z,6.87
2018-12-18T07:40:20.224Z,6.86
2018-12-18T07:41:20.254Z,6.78
2018-12-18T07:42:20.158Z,6.81
2018-12-18T07:43:20.127Z,6.82
2018-12-18T07:44:20.097Z,6.89
2018-12-18T07:45:20.072Z,6.94
2018-12-18T07:46:20.043Z,6.82
2018-12-18T07:47:20.002Z,6.82
2018-12-18T07:48:19.974Z,6.90
2018-12-18T07:49:19.939Z,6.83
2018-12-18T07:50:19.906Z,6.86
2018-12-18T07:51:19.882Z,6.93
2018-12-18T07:52:19.849Z,7.04
2018-12-18T07:53:19.813Z,6.91
2018-12-18T07:54:19.782Z,6.99
2018-12-18T07:55:19.750Z,6.90
2018-12-18T07:56:19.720Z,7.00
2018-12-18T07:57:19.697Z,7.00
2018-12-18T07:58:19.659Z,7.07
2018-12-18T07:59:19.659Z,7.04
2018-12-18T08:00:19.597Z,7.07
2018-12-18T08:01:19.562Z,7.05
2018-12-18T08:02:19.534Z,7.00
2018-12-18T08:03:19.499Z,7.00
2018-12-18T08:04:19.468Z,7.01
2018-12-18T08:05:19.436Z,7.05
2018-12-18T08:06:19.424Z,7.01
2018-12-18T08:07:19.376Z,7.07
2018-12-18T08:08:19.344Z,7.04
2018-12-18T08:09:19.312Z,7.05
2018-12-18T08:10:19.283Z,7.04
2018-12-18T08:11:19.249Z,7.07
2018-12-18T08:12:19.218Z,7.07
2018-12-18T08:13:19.186Z,7.11
2018-12-18T08:14:19.155Z,7.04
2018-12-18T08:15:19.128Z,7.11
2018-12-18T08:16:19.094Z,7.09
2018-12-18T08:17:19.061Z,7.09
2018-12-18T08:18:19.030Z,7.01
2018-12-18T08:19:19.000Z,7.00
2018-12-18T08:20:18.972Z,7.09
2018-12-18T08:21:18.935Z,7.04
2018-12-18T08:22:18.905Z,7.04
2018-12-18T08:23:18.874Z,7.07
2018-12-18T08:24:18.843Z,7.08
2018-12-18T08:25:18.811Z,7.07
2018-12-18T08:26:18.782Z,7.08
2018-12-18T08:27:18.749Z,7.08
2018-12-18T08:28:18.723Z,7.07
2018-12-18T08:29:18.688Z,7.12
2018-12-18T08:30:18.655Z,7.08
2018-12-18T08:31:18.637Z,7.07
2018-12-18T08:32:18.594Z,7.04
2018-12-18T08:33:18.562Z,7.08
2018-12-18T08:34:18.530Z,7.09
2018-12-18T08:35:18.503Z,7.09
2018-12-18T08:36:18.469Z,7.04
2018-12-18T08:37:18.438Z,7.08
2018-12-18T08:38:18.410Z,7.14
2018-12-18T08:39:18.378Z,7.01
2018-12-18T08:40:18.343Z,7.08
2018-12-18T08:41:18.313Z,7.04
2018-12-18T08:42:18.281Z,7.08
2018-12-18T08:43:18.265Z,7.14
2018-12-18T08:44:18.221Z,7.18
2018-12-18T08:45:18.194Z,7.16
2018-12-18T08:46:18.165Z,7.18
2018-12-18T08:47:18.127Z,7.19
2018-12-18T08:48:18.096Z,7.11
2018-12-18T08:49:18.065Z,7.09
2018-12-18T08:50:18.041Z,7.09
2018-12-18T08:51:18.004Z,7.16
2018-12-18T08:52:17.972Z,7.12
2018-12-18T08:53:17.944Z,7.14
2018-12-18T08:54:17.908Z,7.12
2018-12-18T08:55:17.887Z,7.15
2018-12-18T08:56:17.847Z,7.19
2018-12-18T08:57:17.819Z,7.15
2018-12-18T08:58:17.787Z,7.14
2018-12-18T08:59:17.766Z,7.19
2018-12-18T09:00:17.731Z,7.19
2018-12-18T09:01:17.692Z,7.16
2018-12-18T09:02:17.660Z,7.12
2018-12-18T09:03:17.630Z,7.14
2018-12-18T09:04:17.600Z,7.19
2018-12-18T09:05:17.567Z,7.18
2018-12-18T09:06:17.540Z,7.16
2018-12-18T09:07:17.507Z,7.14
2018-12-18T09:08:17.476Z,7.19
2018-12-18T09:09:17.444Z,7.18
2018-12-18T09:10:17.424Z,7.15
2018-12-18T09:11:17.383Z,7.19
2018-12-18T09:12:17.352Z,7.26
2018-12-18T09:13:17.321Z,7.18
2018-12-18T09:14:17.290Z,7.27
2018-12-18T09:15:17.274Z,7.16
2018-12-18T09:16:17.229Z,7.29
2018-12-18T09:17:17.199Z,7.30
2018-12-18T09:18:17.167Z,7.19
2018-12-18T09:19:17.150Z,7.16
2018-12-18T09:20:17.106Z,7.27
2018-12-18T09:21:17.074Z,7.27
2018-12-18T09:22:17.047Z,7.24
2018-12-18T09:23:17.012Z,7.32
2018-12-18T09:24:16.984Z,7.32
2018-12-18T09:25:16.956Z,7.36
2018-12-18T09:26:16.921Z,7.26
2018-12-18T09:27:16.893Z,7.30
2018-12-18T09:28:16.862Z,7.32
2018-12-18T09:29:16.844Z,7.33
2018-12-18T09:30:16.806Z,7.39
2018-12-18T09:31:16.768Z,7.39
2018-12-18T09:32:16.744Z,7.39
2018-12-18T09:33:16.706Z,7.34
2018-12-18T09:34:16.675Z,7.37
2018-12-18T09:35:16.644Z,7.36
2018-12-18T09:36:16.615Z,7.36
2018-12-18T09:37:16.589Z,7.37
2018-12-18T09:38:16.561Z,7.45
2018-12-18T09:39:16.725Z,7.47
2018-12-18T09:40:16.492Z,7.39
2018-12-18T09:41:16.461Z,7.44
2018-12-18T09:42:16.431Z,7.50
2018-12-18T09:43:16.401Z,7.44
2018-12-18T09:44:16.376Z,7.48
2018-12-18T09:45:16.343Z,7.48
2018-12-18T09:46:16.312Z,7.51
2018-12-18T09:47:16.279Z,7.44
2018-12-18T09:48:16.257Z,7.51
2018-12-18T09:49:16.235Z,7.50
2018-12-18T09:50:16.188Z,7.45
2018-12-18T09:51:16.157Z,7.54
2018-12-18T09:52:16.131Z,7.58
2018-12-18T09:53:16.097Z,7.69
2018-12-18T09:54:16.079Z,7.66
2018-12-18T09:55:16.038Z,7.62
2018-12-18T09:56:16.007Z,7.63
2018-12-18T09:57:15.977Z,7.67
2018-12-18T09:58:15.947Z,7.55
2018-12-18T09:59:15.916Z,7.62
2018-12-18T10:00:15.888Z,7.63
2018-12-18T10:01:15.864Z,7.63
2018-12-18T10:02:15.831Z,7.67
2018-12-18T10:03:15.802Z,7.63
2018-12-18T10:04:15.780Z,7.58
2018-12-18T10:05:15.738Z,7.58
2018-12-18T10:06:15.709Z,7.63
2018-12-18T10:07:15.680Z,7.58
2018-12-18T10:08:15.658Z,7.57
2018-12-18T10:09:15.621Z,7.58
2018-12-18T10:10:15.588Z,7.60
2018-12-18T10:11:15.575Z,7.58
2018-12-18T10:12:15.531Z,7.57
2018-12-18T10:13:15.508Z,7.62
2018-12-18T10:14:15.471Z,7.69
2018-12-18T10:15:15.442Z,7.60
2018-12-18T10:16:15.411Z,7.67
2018-12-18T10:17:15.383Z,7.66
2018-12-18T10:18:15.351Z,7.62
2018-12-18T10:19:15.326Z,7.63
2018-12-18T10:20:15.294Z,7.60
2018-12-18T10:21:15.261Z,7.52
2018-12-18T10:22:15.234Z,7.66
2018-12-18T10:23:15.208Z,7.66
2018-12-18T10:24:16.575Z,7.55
2018-12-18T10:25:15.156Z,7.57
2018-12-18T10:26:15.115Z,7.55
2018-12-18T10:27:15.084Z,7.58
2018-12-18T10:28:15.055Z,7.60
2018-12-18T10:29:15.024Z,7.54
2018-12-18T10:30:15.003Z,7.50
2018-12-18T10:31:14.967Z,7.45
2018-12-18T10:32:14.935Z,7.50
2018-12-18T10:33:14.906Z,7.39
2018-12-18T10:34:14.881Z,7.39
2018-12-18T10:35:14.847Z,7.41
2018-12-18T10:36:14.824Z,7.34
2018-12-18T10:37:14.788Z,7.34
2018-12-18T10:38:14.758Z,7.41
2018-12-18T10:39:14.727Z,7.44
2018-12-18T10:40:14.817Z,7.34
2018-12-18T10:41:14.666Z,7.36
2018-12-18T10:42:14.650Z,7.37
2018-12-18T10:43:14.605Z,7.39
2018-12-18T10:44:14.577Z,7.50
2018-12-18T10:45:14.546Z,7.36
2018-12-18T10:46:14.516Z,7.36
2018-12-18T10:47:14.487Z,7.39
2018-12-18T10:48:14.464Z,7.37
2018-12-18T10:49:14.428Z,7.36
2018-12-18T10:50:14.400Z,7.37
2018-12-18T10:51:14.365Z,7.44
2018-12-18T10:52:14.338Z,7.47
2018-12-18T10:53:14.306Z,7.41
2018-12-18T10:54:14.279Z,7.41
2018-12-18T10:55:14.247Z,7.41
2018-12-18T10:56:14.220Z,7.37
2018-12-18T10:57:14.185Z,7.36
2018-12-18T10:58:14.158Z,7.42
2018-12-18T10:59:14.124Z,7.45
2018-12-18T11:00:14.115Z,7.44
2018-12-18T11:01:14.066Z,7.48
2018-12-18T11:02:14.036Z,7.48
2018-12-18T11:03:14.011Z,7.42
2018-12-18T11:04:13.987Z,7.44
2018-12-18T11:05:13.943Z,7.44
2018-12-18T11:06:13.915Z,7.52
2018-12-18T11:07:13.884Z,7.62
2018-12-18T11:08:13.853Z,7.66
2018-12-18T11:09:13.827Z,7.52
2018-12-18T11:10:13.795Z,7.55
2018-12-18T11:11:13.765Z,7.58
2018-12-18T11:12:13.735Z,7.51
2018-12-18T11:13:13.705Z,7.58
2018-12-18T11:14:13.680Z,7.55
2018-12-18T11:15:13.645Z,7.58
2018-12-18T11:16:13.645Z,7.66
2018-12-18T11:17:13.590Z,7.60
2018-12-18T11:18:13.551Z,7.66
2018-12-18T11:19:13.520Z,7.66
2018-12-18T11:20:13.491Z,7.62
2018-12-18T11:21:13.464Z,7.67
2018-12-18T11:22:13.431Z,7.62
2018-12-18T11:23:13.400Z,7.60
2018-12-18T11:24:13.369Z,7.62
2018-12-18T11:25:13.345Z,7.70
2018-12-18T11:26:13.312Z,7.62
2018-12-18T11:27:13.278Z,7.63
2018-12-18T11:28:13.250Z,7.67
2018-12-18T11:29:13.218Z,7.60
2018-12-18T11:30:13.213Z,7.63
2018-12-18T11:31:13.160Z,7.69
2018-12-18T11:32:13.127Z,7.58
2018-12-18T11:33:13.101Z,7.62
2018-12-18T11:34:13.066Z,7.58
2018-12-18T11:35:13.037Z,7.60
2018-12-18T11:36:16.503Z,7.62
2018-12-18T11:37:12.981Z,7.67
2018-12-18T11:38:12.949Z,7.66
2018-12-18T11:39:12.919Z,7.66
2018-12-18T11:40:12.886Z,7.69
2018-12-18T11:41:12.858Z,7.62
2018-12-18T11:42:12.824Z,7.67
2018-12-18T11:43:12.811Z,7.60
2018-12-18T11:44:12.766Z,7.60
2018-12-18T11:45:12.737Z,7.60
2018-12-18T11:46:12.704Z,7.58
2018-12-18T11:47:12.690Z,7.63
2018-12-18T11:48:12.642Z,7.66
2018-12-18T11:49:12.612Z,7.62
2018-12-18T11:50:12.586Z,7.70
2018-12-18T11:51:12.553Z,7.66
2018-12-18T11:52:12.526Z,7.63
2018-12-18T11:53:12.490Z,7.70
2018-12-18T11:54:12.461Z,7.73
2018-12-18T11:55:12.430Z,7.82
2018-12-18T11:56:12.416Z,7.77
2018-12-18T11:57:12.378Z,7.82
2018-12-18T11:58:12.346Z,7.89
2018-12-18T11:59:12.311Z,7.79
2018-12-18T12:00:12.280Z,7.79
2018-12-18T12:01:12.247Z,7.81
2018-12-18T12:02:12.227Z,7.85
2018-12-18T12:03:12.194Z,7.84
2018-12-18T12:04:12.174Z,7.77
2018-12-18T12:05:12.127Z,7.77
2018-12-18T12:06:12.108Z,7.86
2018-12-18T12:07:12.070Z,7.81
2018-12-18T12:08:12.047Z,7.77
2018-12-18T12:09:12.012Z,7.92
2018-12-18T12:10:11.980Z,7.88
2018-12-18T12:11:11.948Z,7.79
2018-12-18T12:12:11.918Z,7.92
2018-12-18T12:13:11.887Z,7.85
2018-12-18T12:14:11.919Z,7.81
2018-12-18T12:15:11.834Z,7.82
2018-12-18T12:16:11.808Z,7.99
2018-12-18T12:17:11.767Z,7.84
2018-12-18T12:18:11.757Z,7.89
2018-12-18T12:19:11.706Z,7.89
2018-12-18T12:20:11.679Z,7.88
2018-12-18T12:21:11.660Z,7.95
2018-12-18T12:22:11.617Z,8.00
2018-12-18T12:23:11.590Z,7.96
2018-12-18T12:24:11.558Z,7.92
2018-12-18T12:25:11.528Z,7.99
2018-12-18T12:26:11.501Z,8.06
2018-12-18T12:27:11.467Z,8.09
2018-12-18T12:28:11.440Z,8.17
2018-12-18T12:29:11.407Z,8.10
2018-12-18T12:30:11.378Z,8.06
2018-12-18T12:31:12.591Z,8.00
2018-12-18T12:32:11.322Z,7.99
2018-12-18T12:33:11.294Z,7.99
2018-12-18T12:34:11.259Z,7.94
2018-12-18T12:35:11.289Z,7.89
2018-12-18T12:36:11.201Z,7.86
2018-12-18T12:37:11.175Z,7.89
2018-12-18T12:38:11.141Z,7.88
2018-12-18T12:39:11.111Z,7.84
2018-12-18T12:40:11.090Z,7.92
2018-12-18T12:41:11.053Z,7.95
2018-12-18T12:42:11.020Z,7.94
2018-12-18T12:43:10.996Z,7.99
2018-12-18T12:44:10.964Z,7.99
2018-12-18T12:45:10.932Z,7.95
2018-12-18T12:46:10.902Z,7.99
2018-12-18T12:47:10.883Z,8.00
2018-12-18T12:48:10.842Z,7.99
2018-12-18T12:49:10.821Z,8.00
2018-12-18T12:50:10.782Z,8.02
2018-12-18T12:51:10.758Z,8.07
2018-12-18T12:52:10.724Z,8.03
2018-12-18T12:53:10.692Z,7.94
2018-12-18T12:54:10.663Z,7.99
2018-12-18T12:55:10.634Z,7.92
2018-12-18T12:56:10.603Z,7.96
2018-12-18T12:57:10.574Z,7.88
2018-12-18T12:58:10.557Z,7.96
2018-12-18T12:59:10.514Z,7.95
2018-12-18T13:00:10.490Z,7.81
2018-12-18T13:01:10.454Z,7.85
2018-12-18T13:02:10.427Z,7.84
2018-12-18T13:03:10.397Z,7.84
2018-12-18T13:04:10.369Z,7.76
2018-12-18T13:05:10.356Z,7.79
2018-12-18T13:06:10.304Z,7.85
2018-12-18T13:07:10.276Z,7.77
2018-12-18T13:08:10.248Z,7.85
2018-12-18T13:09:10.231Z,7.79
2018-12-18T13:10:10.187Z,7.79
2018-12-18T13:11:10.156Z,7.92
2018-12-18T13:12:10.130Z,7.79
2018-12-18T13:13:10.096Z,7.89
2018-12-18T13:14:10.066Z,7.82
2018-12-18T13:15:10.035Z,7.89
2018-12-18T13:16:10.007Z,7.89
2018-12-18T13:17:09.981Z,7.88
2018-12-18T13:18:09.949Z,7.94